sensor_id;sensor_type;location;lat;lon;timestamp;P1;durP1;ratioP1;P2;durP2;ratioP2
29210;SDS011;16250;49.932;10.980;2023-06-10T00:01:06;8.48;;;7.45;;
29210;SDS011;16250;49.932;10.980;2023-06-10T00:07:10;8.68;;;7.18;;
29210;SDS011;16250;49.932;10.980;2023-06-10T00:09:47;8.38;;;7.57;;
29210;SDS011;16250;49.932;10.980;2023-06-10T00:12:41;9.70;;;7.72;;
29210;SDS011;16250;49.932;10.980;2023-06-10T00:15:09;9.27;;;7.28;;
29210;SDS011;16250;49.932;10.980;2023-06-10T00:17:35;8.50;;;7.45;;
29210;SDS011;16250;49.932;10.980;2023-06-10T00:20:05;8.07;;;7.28;;
29210;SDS011;16250;49.932;10.980;2023-06-10T00:22:37;8.23;;;7.38;;
29210;SDS011;16250;49.932;10.980;2023-06-10T00:25:03;7.85;;;7.07;;
29210;SDS011;16250;49.932;10.980;2023-06-10T00:27:30;8.32;;;7.53;;
29210;SDS011;16250;49.932;10.980;2023-06-10T00:30:00;8.57;;;7.60;;
29210;SDS011;16250;49.932;10.980;2023-06-10T00:32:32;7.47;;;6.78;;
29210;SDS011;16250;49.932;10.980;2023-06-10T00:34:58;8.57;;;7.78;;
29210;SDS011;16250;49.932;10.980;2023-06-10T00:37:24;8.63;;;7.63;;
29210;SDS011;16250;49.932;10.980;2023-06-10T00:39:49;8.98;;;8.07;;
29210;SDS011;16250;49.932;10.980;2023-06-10T00:42:14;9.27;;;8.30;;
29210;SDS011;16250;49.932;10.980;2023-06-10T00:44:40;9.35;;;7.78;;
29210;SDS011;16250;49.932;10.980;2023-06-10T00:47:05;10.55;;;7.40;;
29210;SDS011;16250;49.932;10.980;2023-06-10T00:49:31;9.32;;;7.32;;
29210;SDS011;16250;49.932;10.980;2023-06-10T00:51:57;8.63;;;7.20;;
29210;SDS011;16250;49.932;10.980;2023-06-10T00:54:23;8.77;;;7.05;;
29210;SDS011;16250;49.932;10.980;2023-06-10T00:56:48;7.88;;;7.07;;
29210;SDS011;16250;49.932;10.980;2023-06-10T00:59:14;8.98;;;6.40;;
29210;SDS011;16250;49.932;10.980;2023-06-10T01:01:40;7.68;;;6.88;;
29210;SDS011;16250;49.932;10.980;2023-06-10T01:04:08;8.82;;;7.22;;
29210;SDS011;16250;49.932;10.980;2023-06-10T01:09:24;8.13;;;7.32;;
29210;SDS011;16250;49.932;10.980;2023-06-10T01:14:28;8.98;;;6.78;;
29210;SDS011;16250;49.932;10.980;2023-06-10T01:16:54;7.75;;;6.95;;
29210;SDS011;16250;49.932;10.980;2023-06-10T01:19:19;8.20;;;7.40;;
29210;SDS011;16250;49.932;10.980;2023-06-10T01:21:45;8.35;;;7.20;;
29210;SDS011;16250;49.932;10.980;2023-06-10T01:24:14;7.80;;;7.00;;
29210;SDS011;16250;49.932;10.980;2023-06-10T01:26:43;10.32;;;7.32;;
29210;SDS011;16250;49.932;10.980;2023-06-10T01:29:17;8.30;;;7.47;;
29210;SDS011;16250;49.932;10.980;2023-06-10T01:31:49;8.32;;;7.53;;
29210;SDS011;16250;49.932;10.980;2023-06-10T01:34:20;9.02;;;7.65;;
29210;SDS011;16250;49.932;10.980;2023-06-10T01:36:47;9.48;;;7.50;;
29210;SDS011;16250;49.932;10.980;2023-06-10T01:39:17;9.00;;;7.45;;
29210;SDS011;16250;49.932;10.980;2023-06-10T01:41:43;8.18;;;7.38;;
29210;SDS011;16250;49.932;10.980;2023-06-10T01:44:09;8.93;;;7.22;;
29210;SDS011;16250;49.932;10.980;2023-06-10T01:46:35;8.40;;;7.53;;
29210;SDS011;16250;49.932;10.980;2023-06-10T01:49:00;8.95;;;7.90;;
29210;SDS011;16250;49.932;10.980;2023-06-10T01:51:26;10.15;;;7.93;;
29210;SDS011;16250;49.932;10.980;2023-06-10T01:53:51;8.45;;;7.60;;
29210;SDS011;16250;49.932;10.980;2023-06-10T01:56:17;8.63;;;7.82;;
29210;SDS011;16250;49.932;10.980;2023-06-10T01:58:48;10.65;;;8.57;;
29210;SDS011;16250;49.932;10.980;2023-06-10T02:01:13;8.73;;;7.88;;
29210;SDS011;16250;49.932;10.980;2023-06-10T02:03:39;10.90;;;8.07;;
29210;SDS011;16250;49.932;10.980;2023-06-10T02:06:04;9.15;;;8.25;;
29210;SDS011;16250;49.932;10.980;2023-06-10T02:08:30;9.05;;;8.02;;
29210;SDS011;16250;49.932;10.980;2023-06-10T02:10:55;8.95;;;8.05;;
29210;SDS011;16250;49.932;10.980;2023-06-10T02:13:20;9.18;;;7.82;;
29210;SDS011;16250;49.932;10.980;2023-06-10T02:15:50;9.60;;;8.60;;
29210;SDS011;16250;49.932;10.980;2023-06-10T02:18:18;9.43;;;8.38;;
29210;SDS011;16250;49.932;10.980;2023-06-10T02:20:45;10.57;;;8.32;;
29210;SDS011;16250;49.932;10.980;2023-06-10T02:23:11;9.90;;;8.27;;
29210;SDS011;16250;49.932;10.980;2023-06-10T02:25:36;9.30;;;7.95;;
29210;SDS011;16250;49.932;10.980;2023-06-10T02:28:01;8.90;;;8.00;;
29210;SDS011;16250;49.932;10.980;2023-06-10T02:30:28;9.55;;;8.65;;
29210;SDS011;16250;49.932;10.980;2023-06-10T02:32:53;10.45;;;9.10;;
29210;SDS011;16250;49.932;10.980;2023-06-10T02:35:23;10.18;;;9.18;;
29210;SDS011;16250;49.932;10.980;2023-06-10T02:37:49;9.27;;;8.48;;
29210;SDS011;16250;49.932;10.980;2023-06-10T02:40:16;10.15;;;9.23;;
29210;SDS011;16250;49.932;10.980;2023-06-10T02:42:42;9.57;;;8.63;;
29210;SDS011;16250;49.932;10.980;2023-06-10T02:45:08;9.00;;;8.10;;
29210;SDS011;16250;49.932;10.980;2023-06-10T02:47:38;9.77;;;8.85;;
29210;SDS011;16250;49.932;10.980;2023-06-10T02:50:05;9.93;;;8.45;;
29210;SDS011;16250;49.932;10.980;2023-06-10T02:52:36;10.68;;;9.57;;
29210;SDS011;16250;49.932;10.980;2023-06-10T02:55:02;11.00;;;9.80;;
29210;SDS011;16250;49.932;10.980;2023-06-10T02:57:27;10.02;;;9.13;;
29210;SDS011;16250;49.932;10.980;2023-06-10T02:59:53;11.27;;;10.27;;
29210;SDS011;16250;49.932;10.980;2023-06-10T03:02:19;10.57;;;9.48;;
29210;SDS011;16250;49.932;10.980;2023-06-10T03:04:49;10.00;;;9.00;;
29210;SDS011;16250;49.932;10.980;2023-06-10T03:07:17;10.93;;;9.82;;
29210;SDS011;16250;49.932;10.980;2023-06-10T03:09:44;11.55;;;10.02;;
29210;SDS011;16250;49.932;10.980;2023-06-10T03:12:11;12.98;;;11.52;;
29210;SDS011;16250;49.932;10.980;2023-06-10T03:14:41;13.40;;;12.15;;
29210;SDS011;16250;49.932;10.980;2023-06-10T03:17:07;13.82;;;12.73;;
29210;SDS011;16250;49.932;10.980;2023-06-10T03:19:34;14.88;;;13.60;;
29210;SDS011;16250;49.932;10.980;2023-06-10T03:22:16;14.63;;;13.43;;
29210;SDS011;16250;49.932;10.980;2023-06-10T03:24:56;14.25;;;13.05;;
29210;SDS011;16250;49.932;10.980;2023-06-10T03:27:23;14.95;;;13.85;;
29210;SDS011;16250;49.932;10.980;2023-06-10T03:29:52;16.80;;;15.30;;
29210;SDS011;16250;49.932;10.980;2023-06-10T03:32:18;16.33;;;15.05;;
29210;SDS011;16250;49.932;10.980;2023-06-10T03:34:44;16.58;;;15.27;;
29210;SDS011;16250;49.932;10.980;2023-06-10T03:37:13;14.93;;;13.73;;
29210;SDS011;16250;49.932;10.980;2023-06-10T03:39:40;15.45;;;14.15;;
29210;SDS011;16250;49.932;10.980;2023-06-10T03:42:07;16.38;;;14.82;;
29210;SDS011;16250;49.932;10.980;2023-06-10T03:44:32;16.45;;;15.18;;
29210;SDS011;16250;49.932;10.980;2023-06-10T03:46:58;18.55;;;17.25;;
29210;SDS011;16250;49.932;10.980;2023-06-10T03:49:25;18.80;;;17.40;;
29210;SDS011;16250;49.932;10.980;2023-06-10T03:51:55;17.17;;;15.75;;
29210;SDS011;16250;49.932;10.980;2023-06-10T03:54:21;17.42;;;16.02;;
29210;SDS011;16250;49.932;10.980;2023-06-10T03:56:47;19.70;;;18.10;;
29210;SDS011;16250;49.932;10.980;2023-06-10T03:59:15;19.52;;;18.02;;
29210;SDS011;16250;49.932;10.980;2023-06-10T04:01:41;18.63;;;17.23;;
29210;SDS011;16250;49.932;10.980;2023-06-10T04:04:08;18.67;;;17.15;;
29210;SDS011;16250;49.932;10.980;2023-06-10T04:06:34;17.13;;;15.93;;
29210;SDS011;16250;49.932;10.980;2023-06-10T04:08:59;17.38;;;16.08;;
29210;SDS011;16250;49.932;10.980;2023-06-10T04:11:27;17.30;;;16.13;;
29210;SDS011;16250;49.932;10.980;2023-06-10T04:13:52;17.88;;;16.50;;
29210;SDS011;16250;49.932;10.980;2023-06-10T04:16:18;17.10;;;15.63;;
29210;SDS011;16250;49.932;10.980;2023-06-10T04:18:43;16.27;;;15.07;;
29210;SDS011;16250;49.932;10.980;2023-06-10T04:21:10;16.10;;;14.93;;
29210;SDS011;16250;49.932;10.980;2023-06-10T04:23:35;17.33;;;16.02;;
29210;SDS011;16250;49.932;10.980;2023-06-10T04:26:05;17.40;;;16.00;;
29210;SDS011;16250;49.932;10.980;2023-06-10T04:28:31;20.27;;;14.68;;
29210;SDS011;16250;49.932;10.980;2023-06-10T04:30:57;16.27;;;14.88;;
29210;SDS011;16250;49.932;10.980;2023-06-10T04:33:23;15.25;;;13.98;;
29210;SDS011;16250;49.932;10.980;2023-06-10T04:35:50;15.68;;;14.18;;
29210;SDS011;16250;49.932;10.980;2023-06-10T04:38:17;15.88;;;14.38;;
29210;SDS011;16250;49.932;10.980;2023-06-10T04:40:43;15.77;;;14.23;;
29210;SDS011;16250;49.932;10.980;2023-06-10T04:43:10;15.43;;;13.93;;
29210;SDS011;16250;49.932;10.980;2023-06-10T04:45:36;12.38;;;11.18;;
29210;SDS011;16250;49.932;10.980;2023-06-10T04:48:02;13.20;;;11.98;;
29210;SDS011;16250;49.932;10.980;2023-06-10T04:50:28;13.82;;;12.52;;
29210;SDS011;16250;49.932;10.980;2023-06-10T04:52:53;13.63;;;12.30;;
29210;SDS011;16250;49.932;10.980;2023-06-10T04:55:22;14.73;;;13.30;;
29210;SDS011;16250;49.932;10.980;2023-06-10T04:57:48;15.95;;;14.45;;
29210;SDS011;16250;49.932;10.980;2023-06-10T05:00:13;14.95;;;13.63;;
29210;SDS011;16250;49.932;10.980;2023-06-10T05:02:39;15.05;;;13.70;;
29210;SDS011;16250;49.932;10.980;2023-06-10T05:05:04;14.02;;;12.65;;
29210;SDS011;16250;49.932;10.980;2023-06-10T05:07:31;13.50;;;11.63;;
29210;SDS011;16250;49.932;10.980;2023-06-10T05:09:56;14.52;;;13.13;;
29210;SDS011;16250;49.932;10.980;2023-06-10T05:12:21;14.35;;;12.75;;
29210;SDS011;16250;49.932;10.980;2023-06-10T05:14:47;12.32;;;11.15;;
29210;SDS011;16250;49.932;10.980;2023-06-10T05:17:12;11.68;;;10.48;;
29210;SDS011;16250;49.932;10.980;2023-06-10T05:19:38;11.90;;;10.70;;
29210;SDS011;16250;49.932;10.980;2023-06-10T05:22:03;11.88;;;10.68;;
29210;SDS011;16250;49.932;10.980;2023-06-10T05:24:29;11.93;;;10.73;;
29210;SDS011;16250;49.932;10.980;2023-06-10T05:26:54;12.23;;;10.60;;
29210;SDS011;16250;49.932;10.980;2023-06-10T05:29:20;12.88;;;11.18;;
29210;SDS011;16250;49.932;10.980;2023-06-10T05:31:45;11.63;;;10.43;;
29210;SDS011;16250;49.932;10.980;2023-06-10T05:34:10;11.88;;;10.75;;
29210;SDS011;16250;49.932;10.980;2023-06-10T05:36:36;11.52;;;10.50;;
29210;SDS011;16250;49.932;10.980;2023-06-10T05:39:01;13.40;;;10.60;;
29210;SDS011;16250;49.932;10.980;2023-06-10T05:41:27;13.65;;;10.25;;
29210;SDS011;16250;49.932;10.980;2023-06-10T05:43:52;17.05;;;11.30;;
29210;SDS011;16250;49.932;10.980;2023-06-10T05:46:17;10.55;;;9.48;;
29210;SDS011;16250;49.932;10.980;2023-06-10T05:48:43;11.38;;;10.27;;
29210;SDS011;16250;49.932;10.980;2023-06-10T05:51:08;11.75;;;10.55;;
29210;SDS011;16250;49.932;10.980;2023-06-10T05:53:33;12.65;;;10.85;;
29210;SDS011;16250;49.932;10.980;2023-06-10T05:55:59;13.55;;;11.00;;
29210;SDS011;16250;49.932;10.980;2023-06-10T05:58:24;11.73;;;10.52;;
29210;SDS011;16250;49.932;10.980;2023-06-10T06:00:50;11.80;;;10.60;;
29210;SDS011;16250;49.932;10.980;2023-06-10T06:03:15;12.23;;;10.25;;
29210;SDS011;16250;49.932;10.980;2023-06-10T06:05:41;11.57;;;10.48;;
29210;SDS011;16250;49.932;10.980;2023-06-10T06:08:09;14.82;;;9.88;;
29210;SDS011;16250;49.932;10.980;2023-06-10T06:10:34;11.63;;;10.40;;
29210;SDS011;16250;49.932;10.980;2023-06-10T06:13:00;12.90;;;10.23;;
29210;SDS011;16250;49.932;10.980;2023-06-10T06:15:26;11.05;;;9.93;;
29210;SDS011;16250;49.932;10.980;2023-06-10T06:17:51;11.30;;;9.95;;
29210;SDS011;16250;49.932;10.980;2023-06-10T06:20:21;15.27;;;10.40;;
29210;SDS011;16250;49.932;10.980;2023-06-10T06:22:46;16.30;;;10.93;;
29210;SDS011;16250;49.932;10.980;2023-06-10T06:25:12;15.02;;;10.38;;
29210;SDS011;16250;49.932;10.980;2023-06-10T06:27:37;11.45;;;10.25;;
29210;SDS011;16250;49.932;10.980;2023-06-10T06:30:03;11.55;;;10.27;;
29210;SDS011;16250;49.932;10.980;2023-06-10T06:32:29;12.82;;;10.00;;
29210;SDS011;16250;49.932;10.980;2023-06-10T06:34:54;11.50;;;9.45;;
29210;SDS011;16250;49.932;10.980;2023-06-10T06:37:23;12.00;;;10.02;;
29210;SDS011;16250;49.932;10.980;2023-06-10T06:39:54;12.57;;;9.85;;
29210;SDS011;16250;49.932;10.980;2023-06-10T06:42:20;12.27;;;10.13;;
29210;SDS011;16250;49.932;10.980;2023-06-10T06:45:06;11.00;;;9.82;;
29210;SDS011;16250;49.932;10.980;2023-06-10T06:47:31;11.20;;;9.52;;
29210;SDS011;16250;49.932;10.980;2023-06-10T06:49:57;10.40;;;9.40;;
29210;SDS011;16250;49.932;10.980;2023-06-10T06:52:22;10.13;;;9.15;;
29210;SDS011;16250;49.932;10.980;2023-06-10T06:54:47;13.30;;;10.00;;
29210;SDS011;16250;49.932;10.980;2023-06-10T06:57:13;13.88;;;9.25;;
29210;SDS011;16250;49.932;10.980;2023-06-10T06:59:38;10.25;;;9.07;;
29210;SDS011;16250;49.932;10.980;2023-06-10T07:02:04;11.65;;;9.50;;
29210;SDS011;16250;49.932;10.980;2023-06-10T07:04:29;12.68;;;9.10;;
29210;SDS011;16250;49.932;10.980;2023-06-10T07:06:55;10.35;;;9.00;;
29210;SDS011;16250;49.932;10.980;2023-06-10T07:09:20;9.23;;;7.85;;
29210;SDS011;16250;49.932;10.980;2023-06-10T07:11:46;7.75;;;7.05;;
29210;SDS011;16250;49.932;10.980;2023-06-10T07:14:11;8.60;;;7.70;;
29210;SDS011;16250;49.932;10.980;2023-06-10T07:16:36;8.40;;;7.63;;
29210;SDS011;16250;49.932;10.980;2023-06-10T07:19:02;8.40;;;7.53;;
29210;SDS011;16250;49.932;10.980;2023-06-10T07:21:27;8.07;;;7.28;;
29210;SDS011;16250;49.932;10.980;2023-06-10T07:23:53;7.85;;;6.90;;
29210;SDS011;16250;49.932;10.980;2023-06-10T07:26:19;9.23;;;7.20;;
29210;SDS011;16250;49.932;10.980;2023-06-10T07:28:46;8.60;;;6.90;;
29210;SDS011;16250;49.932;10.980;2023-06-10T07:31:11;8.00;;;6.90;;
29210;SDS011;16250;49.932;10.980;2023-06-10T07:33:37;8.27;;;7.32;;
29210;SDS011;16250;49.932;10.980;2023-06-10T07:36:04;9.23;;;6.45;;
29210;SDS011;16250;49.932;10.980;2023-06-10T07:38:30;7.07;;;6.38;;
29210;SDS011;16250;49.932;10.980;2023-06-10T07:40:55;8.05;;;6.88;;
29210;SDS011;16250;49.932;10.980;2023-06-10T07:43:21;10.63;;;6.63;;
29210;SDS011;16250;49.932;10.980;2023-06-10T07:45:46;7.47;;;6.78;;
29210;SDS011;16250;49.932;10.980;2023-06-10T07:48:11;8.55;;;6.05;;
29210;SDS011;16250;49.932;10.980;2023-06-10T07:50:37;6.97;;;6.18;;
29210;SDS011;16250;49.932;10.980;2023-06-10T07:53:02;7.53;;;6.82;;
29210;SDS011;16250;49.932;10.980;2023-06-10T07:55:28;6.93;;;6.22;;
29210;SDS011;16250;49.932;10.980;2023-06-10T07:57:53;7.35;;;6.18;;
29210;SDS011;16250;49.932;10.980;2023-06-10T08:00:19;6.75;;;6.05;;
29210;SDS011;16250;49.932;10.980;2023-06-10T08:02:45;7.90;;;5.90;;
29210;SDS011;16250;49.932;10.980;2023-06-10T08:05:11;6.82;;;6.00;;
29210;SDS011;16250;49.932;10.980;2023-06-10T08:07:36;6.93;;;6.22;;
29210;SDS011;16250;49.932;10.980;2023-06-10T08:10:02;7.57;;;6.70;;
29210;SDS011;16250;49.932;10.980;2023-06-10T08:12:29;7.13;;;6.00;;
29210;SDS011;16250;49.932;10.980;2023-06-10T08:14:54;7.10;;;6.40;;
29210;SDS011;16250;49.932;10.980;2023-06-10T08:17:20;6.20;;;5.63;;
29210;SDS011;16250;49.932;10.980;2023-06-10T08:19:45;5.78;;;5.28;;
29210;SDS011;16250;49.932;10.980;2023-06-10T08:22:10;6.25;;;5.65;;
29210;SDS011;16250;49.932;10.980;2023-06-10T08:24:37;7.10;;;5.53;;
29210;SDS011;16250;49.932;10.980;2023-06-10T08:27:02;7.93;;;6.28;;
29210;SDS011;16250;49.932;10.980;2023-06-10T08:29:28;8.43;;;6.22;;
29210;SDS011;16250;49.932;10.980;2023-06-10T08:31:55;6.78;;;6.00;;
29210;SDS011;16250;49.932;10.980;2023-06-10T08:34:20;6.70;;;6.10;;
29210;SDS011;16250;49.932;10.980;2023-06-10T08:36:45;8.38;;;6.50;;
29210;SDS011;16250;49.932;10.980;2023-06-10T08:39:11;7.43;;;6.53;;
29210;SDS011;16250;49.932;10.980;2023-06-10T08:41:36;9.13;;;6.70;;
29210;SDS011;16250;49.932;10.980;2023-06-10T08:44:17;7.00;;;6.35;;
29210;SDS011;16250;49.932;10.980;2023-06-10T08:46:47;6.95;;;6.35;;
29210;SDS011;16250;49.932;10.980;2023-06-10T08:49:17;6.45;;;5.75;;
29210;SDS011;16250;49.932;10.980;2023-06-10T08:51:46;6.70;;;6.10;;
29210;SDS011;16250;49.932;10.980;2023-06-10T08:54:17;6.88;;;6.28;;
29210;SDS011;16250;49.932;10.980;2023-06-10T08:56:48;6.90;;;6.22;;
29210;SDS011;16250;49.932;10.980;2023-06-10T08:59:15;7.45;;;6.07;;
29210;SDS011;16250;49.932;10.980;2023-06-10T09:01:44;6.72;;;6.03;;
29210;SDS011;16250;49.932;10.980;2023-06-10T09:04:09;7.82;;;5.90;;
29210;SDS011;16250;49.932;10.980;2023-06-10T09:06:35;6.95;;;6.35;;
29210;SDS011;16250;49.932;10.980;2023-06-10T09:09:01;8.30;;;6.13;;
29210;SDS011;16250;49.932;10.980;2023-06-10T09:11:27;8.23;;;6.50;;
29210;SDS011;16250;49.932;10.980;2023-06-10T09:13:53;7.50;;;5.97;;
29210;SDS011;16250;49.932;10.980;2023-06-10T09:16:18;6.00;;;5.43;;
29210;SDS011;16250;49.932;10.980;2023-06-10T09:18:44;8.63;;;6.57;;
29210;SDS011;16250;49.932;10.980;2023-06-10T09:21:09;6.50;;;5.93;;
29210;SDS011;16250;49.932;10.980;2023-06-10T09:23:35;6.35;;;5.10;;
29210;SDS011;16250;49.932;10.980;2023-06-10T09:26:01;5.32;;;4.80;;
29210;SDS011;16250;49.932;10.980;2023-06-10T09:28:29;6.13;;;5.28;;
29210;SDS011;16250;49.932;10.980;2023-06-10T09:31:04;6.07;;;4.70;;
29210;SDS011;16250;49.932;10.980;2023-06-10T09:33:30;5.57;;;5.07;;
29210;SDS011;16250;49.932;10.980;2023-06-10T09:35:56;6.20;;;5.53;;
29210;SDS011;16250;49.932;10.980;2023-06-10T09:38:28;6.10;;;5.18;;
29210;SDS011;16250;49.932;10.980;2023-06-10T09:40:55;6.97;;;5.43;;
29210;SDS011;16250;49.932;10.980;2023-06-10T09:43:20;5.47;;;4.97;;
29210;SDS011;16250;49.932;10.980;2023-06-10T09:45:49;6.07;;;5.25;;
29210;SDS011;16250;49.932;10.980;2023-06-10T09:48:18;6.28;;;5.75;;
29210;SDS011;16250;49.932;10.980;2023-06-10T09:50:43;8.07;;;5.35;;
29210;SDS011;16250;49.932;10.980;2023-06-10T09:53:09;6.15;;;5.55;;
29210;SDS011;16250;49.932;10.980;2023-06-10T09:55:37;5.85;;;5.22;;
29210;SDS011;16250;49.932;10.980;2023-06-10T09:58:03;6.53;;;4.75;;
29210;SDS011;16250;49.932;10.980;2023-06-10T10:00:31;6.38;;;5.10;;
29210;SDS011;16250;49.932;10.980;2023-06-10T10:02:58;8.30;;;5.53;;
29210;SDS011;16250;49.932;10.980;2023-06-10T10:05:23;6.07;;;5.47;;
29210;SDS011;16250;49.932;10.980;2023-06-10T10:07:49;5.53;;;5.03;;
29210;SDS011;16250;49.932;10.980;2023-06-10T10:10:15;8.00;;;5.70;;
29210;SDS011;16250;49.932;10.980;2023-06-10T10:12:42;5.70;;;5.20;;
29210;SDS011;16250;49.932;10.980;2023-06-10T10:15:08;5.63;;;5.00;;
29210;SDS011;16250;49.932;10.980;2023-06-10T10:17:40;6.28;;;5.47;;
29210;SDS011;16250;49.932;10.980;2023-06-10T10:20:06;6.22;;;5.70;;
29210;SDS011;16250;49.932;10.980;2023-06-10T10:22:37;9.55;;;5.78;;
29210;SDS011;16250;49.932;10.980;2023-06-10T10:25:05;5.90;;;5.30;;
29210;SDS011;16250;49.932;10.980;2023-06-10T10:27:35;7.53;;;5.20;;
29210;SDS011;16250;49.932;10.980;2023-06-10T10:30:03;6.55;;;5.32;;
29210;SDS011;16250;49.932;10.980;2023-06-10T10:32:35;7.32;;;5.07;;
29210;SDS011;16250;49.932;10.980;2023-06-10T10:35:07;7.03;;;4.80;;
29210;SDS011;16250;49.932;10.980;2023-06-10T10:37:33;6.65;;;5.82;;
29210;SDS011;16250;49.932;10.980;2023-06-10T10:40:00;6.25;;;5.18;;
29210;SDS011;16250;49.932;10.980;2023-06-10T10:42:27;5.93;;;5.32;;
29210;SDS011;16250;49.932;10.980;2023-06-10T10:44:52;5.45;;;4.95;;
29210;SDS011;16250;49.932;10.980;2023-06-10T10:47:19;5.63;;;5.00;;
29210;SDS011;16250;49.932;10.980;2023-06-10T10:49:46;5.38;;;4.88;;
29210;SDS011;16250;49.932;10.980;2023-06-10T10:52:14;5.90;;;5.40;;
29210;SDS011;16250;49.932;10.980;2023-06-10T10:54:43;6.97;;;5.60;;
29210;SDS011;16250;49.932;10.980;2023-06-10T10:57:09;5.28;;;4.88;;
29210;SDS011;16250;49.932;10.980;2023-06-10T11:02:17;6.22;;;5.57;;
29210;SDS011;16250;49.932;10.980;2023-06-10T11:04:47;5.53;;;4.97;;
29210;SDS011;16250;49.932;10.980;2023-06-10T11:07:13;7.32;;;5.70;;
29210;SDS011;16250;49.932;10.980;2023-06-10T11:09:57;5.80;;;5.00;;
29210;SDS011;16250;49.932;10.980;2023-06-10T11:15:06;5.70;;;5.17;;
29210;SDS011;16250;49.932;10.980;2023-06-10T11:17:31;5.45;;;4.95;;
29210;SDS011;16250;49.932;10.980;2023-06-10T11:19:58;8.43;;;5.05;;
29210;SDS011;16250;49.932;10.980;2023-06-10T11:22:24;7.72;;;5.22;;
29210;SDS011;16250;49.932;10.980;2023-06-10T11:24:49;6.18;;;5.40;;
29210;SDS011;16250;49.932;10.980;2023-06-10T11:32:29;5.40;;;4.90;;
29210;SDS011;16250;49.932;10.980;2023-06-10T11:34:56;6.35;;;4.60;;
29210;SDS011;16250;49.932;10.980;2023-06-10T11:37:22;6.43;;;4.80;;
29210;SDS011;16250;49.932;10.980;2023-06-10T11:39:51;6.80;;;4.35;;
29210;SDS011;16250;49.932;10.980;2023-06-10T11:42:17;7.82;;;4.78;;
29210;SDS011;16250;49.932;10.980;2023-06-10T11:44:52;7.75;;;4.78;;
29210;SDS011;16250;49.932;10.980;2023-06-10T11:47:18;6.55;;;4.78;;
29210;SDS011;16250;49.932;10.980;2023-06-10T11:49:44;6.10;;;4.50;;
29210;SDS011;16250;49.932;10.980;2023-06-10T11:52:10;5.35;;;4.85;;
29210;SDS011;16250;49.932;10.980;2023-06-10T11:54:37;6.22;;;4.82;;
29210;SDS011;16250;49.932;10.980;2023-06-10T11:57:02;6.75;;;4.75;;
29210;SDS011;16250;49.932;10.980;2023-06-10T11:59:29;5.40;;;4.90;;
29210;SDS011;16250;49.932;10.980;2023-06-10T12:01:54;5.70;;;4.75;;
29210;SDS011;16250;49.932;10.980;2023-06-10T12:04:20;5.40;;;4.88;;
29210;SDS011;16250;49.932;10.980;2023-06-10T12:06:50;5.03;;;4.55;;
29210;SDS011;16250;49.932;10.980;2023-06-10T12:09:20;5.65;;;4.40;;
29210;SDS011;16250;49.932;10.980;2023-06-10T12:11:49;4.88;;;4.38;;
29210;SDS011;16250;49.932;10.980;2023-06-10T12:14:16;5.15;;;4.75;;
29210;SDS011;16250;49.932;10.980;2023-06-10T12:16:47;5.55;;;4.78;;
29210;SDS011;16250;49.932;10.980;2023-06-10T12:19:13;9.20;;;4.90;;
29210;SDS011;16250;49.932;10.980;2023-06-10T12:21:39;6.15;;;4.55;;
29210;SDS011;16250;49.932;10.980;2023-06-10T12:24:08;5.55;;;4.93;;
29210;SDS011;16250;49.932;10.980;2023-06-10T12:26:38;5.75;;;4.95;;
29210;SDS011;16250;49.932;10.980;2023-06-10T12:31:58;5.32;;;4.82;;
29210;SDS011;16250;49.932;10.980;2023-06-10T12:34:31;5.22;;;4.68;;
29210;SDS011;16250;49.932;10.980;2023-06-10T12:36:58;7.72;;;4.85;;
29210;SDS011;16250;49.932;10.980;2023-06-10T12:39:24;5.50;;;5.00;;
29210;SDS011;16250;49.932;10.980;2023-06-10T12:41:50;6.50;;;4.80;;
29210;SDS011;16250;49.932;10.980;2023-06-10T12:44:16;6.25;;;4.88;;
29210;SDS011;16250;49.932;10.980;2023-06-10T12:46:41;5.82;;;5.22;;
29210;SDS011;16250;49.932;10.980;2023-06-10T12:49:07;7.40;;;5.82;;
29210;SDS011;16250;49.932;10.980;2023-06-10T12:51:34;6.40;;;5.80;;
29210;SDS011;16250;49.932;10.980;2023-06-10T12:54:02;5.47;;;4.97;;
29210;SDS011;16250;49.932;10.980;2023-06-10T12:56:27;7.38;;;6.68;;
29210;SDS011;16250;49.932;10.980;2023-06-10T12:58:53;7.72;;;5.53;;
29210;SDS011;16250;49.932;10.980;2023-06-10T13:01:18;6.60;;;5.38;;
29210;SDS011;16250;49.932;10.980;2023-06-10T13:03:43;5.75;;;5.25;;
29210;SDS011;16250;49.932;10.980;2023-06-10T13:06:09;7.70;;;5.40;;
29210;SDS011;16250;49.932;10.980;2023-06-10T13:08:34;5.38;;;4.93;;
29210;SDS011;16250;49.932;10.980;2023-06-10T13:11:00;6.05;;;5.20;;
29210;SDS011;16250;49.932;10.980;2023-06-10T13:13:25;8.35;;;5.10;;
29210;SDS011;16250;49.932;10.980;2023-06-10T13:15:51;5.05;;;4.65;;
29210;SDS011;16250;49.932;10.980;2023-06-10T13:18:16;7.35;;;5.15;;
29210;SDS011;16250;49.932;10.980;2023-06-10T13:20:43;7.30;;;5.50;;
29210;SDS011;16250;49.932;10.980;2023-06-10T13:23:09;5.63;;;5.05;;
29210;SDS011;16250;49.932;10.980;2023-06-10T13:25:34;6.65;;;5.32;;
29210;SDS011;16250;49.932;10.980;2023-06-10T13:28:00;5.38;;;4.88;;
29210;SDS011;16250;49.932;10.980;2023-06-10T13:30:26;5.25;;;4.75;;
29210;SDS011;16250;49.932;10.980;2023-06-10T13:32:51;5.60;;;4.70;;
29210;SDS011;16250;49.932;10.980;2023-06-10T13:35:17;5.18;;;4.78;;
29210;SDS011;16250;49.932;10.980;2023-06-10T13:37:42;12.15;;;7.68;;
29210;SDS011;16250;49.932;10.980;2023-06-10T13:40:07;9.40;;;7.05;;
29210;SDS011;16250;49.932;10.980;2023-06-10T13:42:34;9.40;;;7.35;;
29210;SDS011;16250;49.932;10.980;2023-06-10T13:45:00;8.25;;;6.60;;
29210;SDS011;16250;49.932;10.980;2023-06-10T13:47:26;9.40;;;7.95;;
29210;SDS011;16250;49.932;10.980;2023-06-10T13:49:51;13.10;;;9.10;;
29210;SDS011;16250;49.932;10.980;2023-06-10T13:52:17;10.90;;;9.60;;
29210;SDS011;16250;49.932;10.980;2023-06-10T13:54:42;11.73;;;10.52;;
29210;SDS011;16250;49.932;10.980;2023-06-10T13:57:08;12.63;;;10.40;;
29210;SDS011;16250;49.932;10.980;2023-06-10T13:59:35;11.88;;;10.68;;
29210;SDS011;16250;49.932;10.980;2023-06-10T14:02:00;12.40;;;11.15;;
29210;SDS011;16250;49.932;10.980;2023-06-10T14:04:26;13.18;;;11.77;;
29210;SDS011;16250;49.932;10.980;2023-06-10T14:06:51;12.75;;;11.18;;
29210;SDS011;16250;49.932;10.980;2023-06-10T14:09:17;13.20;;;11.00;;
29210;SDS011;16250;49.932;10.980;2023-06-10T14:11:42;13.02;;;11.40;;
29210;SDS011;16250;49.932;10.980;2023-06-10T14:14:08;12.18;;;10.52;;
29210;SDS011;16250;49.932;10.980;2023-06-10T14:16:34;11.52;;;10.43;;
29210;SDS011;16250;49.932;10.980;2023-06-10T14:18:59;13.88;;;10.90;;
29210;SDS011;16250;49.932;10.980;2023-06-10T14:21:25;10.70;;;9.60;;
29210;SDS011;16250;49.932;10.980;2023-06-10T14:23:51;10.57;;;9.15;;
29210;SDS011;16250;49.932;10.980;2023-06-10T14:26:18;9.93;;;8.95;;
29210;SDS011;16250;49.932;10.980;2023-06-10T14:28:44;10.48;;;9.27;;
29210;SDS011;16250;49.932;10.980;2023-06-10T14:31:09;11.30;;;9.15;;
29210;SDS011;16250;49.932;10.980;2023-06-10T14:33:34;9.63;;;8.70;;
29210;SDS011;16250;49.932;10.980;2023-06-10T14:36:00;9.48;;;8.38;;
29210;SDS011;16250;49.932;10.980;2023-06-10T14:38:25;9.13;;;8.32;;
29210;SDS011;16250;49.932;10.980;2023-06-10T14:40:51;8.68;;;7.90;;
29210;SDS011;16250;49.932;10.980;2023-06-10T14:43:17;8.68;;;7.57;;
29210;SDS011;16250;49.932;10.980;2023-06-10T14:45:42;8.93;;;7.55;;